Fond-Du-Lac, Canada
Current Conditions -  °F | °C
As of 9:10 PM on Friday 24 Oct 2014 (Local Time) from CYSF Reporting Station
Light Snow Light Snow  
Wind Chill: 24°   Ceiling: 2500
Heat Index: 34°   Visibility: 5mi
Dew Point: 32°   Wind: 15mph
Humidity: 93%   Direction: 260°W
Pressure: 29.52"   Gusts: 22mph
Location:  59.32°N, 107.18°W
Report Text: CYSF 250310Z AUTO 26013G19KT 5SM -SN FEW014 OVC025 01/M00 A2952 RMK SLP011
Loading
Personal Weather Stations






























Interactive Weather Map
Tropical Storm Tracking
New forecast layout! Learn more

10-Day Weather Forecast

Advertisements
Track Severe Weather on mobile